createdAt,value
2018-07-15T00:06:03.679Z,2.10
2018-07-15T00:16:08.417Z,2.00
2018-07-15T00:26:13.305Z,2.10
2018-07-15T00:36:18.067Z,2.23
2018-07-15T00:46:22.856Z,2.30
2018-07-15T00:56:27.608Z,1.90
2018-07-15T01:06:32.461Z,1.97
2018-07-15T01:16:40.802Z,2.00
2018-07-15T01:26:45.366Z,2.40
2018-07-15T01:36:50.120Z,2.00
2018-07-15T01:46:54.829Z,2.00
2018-07-15T01:56:59.542Z,2.20
2018-07-15T02:07:04.252Z,1.93
2018-07-15T02:17:09.037Z,2.00
2018-07-15T02:27:14.456Z,1.90
2018-07-15T02:37:19.312Z,2.00
2018-07-15T02:47:24.093Z,1.90
2018-07-15T02:57:29.048Z,1.90
2018-07-15T03:07:33.767Z,1.93
2018-07-15T03:17:38.608Z,1.80
2018-07-15T03:27:43.262Z,1.80
2018-07-15T03:37:48.204Z,2.10
2018-07-15T03:47:53.923Z,1.80
2018-07-15T03:57:58.652Z,2.00
2018-07-15T04:08:03.452Z,1.80
2018-07-15T04:18:08.802Z,1.90
2018-07-15T04:28:13.546Z,1.80
2018-07-15T04:38:18.923Z,1.70
2018-07-15T04:48:23.547Z,2.00
2018-07-15T04:58:28.283Z,1.87
2018-07-15T05:08:33.055Z,1.97
2018-07-15T05:18:37.854Z,1.80
2018-07-15T05:28:42.620Z,1.80
2018-07-15T05:38:47.415Z,1.80
2018-07-15T05:48:53.596Z,1.63
2018-07-15T05:58:58.284Z,1.70
2018-07-15T06:09:02.967Z,1.80
2018-07-15T06:19:08.662Z,1.80
2018-07-15T06:29:15.006Z,1.77
2018-07-15T09:04:24.918Z,1.60
2018-07-15T09:14:29.519Z,1.80
2018-07-15T09:24:35.580Z,1.70
2018-07-15T09:34:39.965Z,1.50
2018-07-15T09:44:44.715Z,1.50
2018-07-15T09:54:49.500Z,1.50
2018-07-15T10:04:54.326Z,1.50
2018-07-15T10:14:59.065Z,1.53
2018-07-15T10:25:03.559Z,1.50
2018-07-15T10:35:08.728Z,1.57
2018-07-15T10:45:13.859Z,1.47
2018-07-15T10:55:18.676Z,1.43
2018-07-15T11:05:23.557Z,1.60
2018-07-15T11:15:28.307Z,1.40
2018-07-15T11:25:33.027Z,1.30
2018-07-15T11:35:37.776Z,1.50
2018-07-15T11:45:42.777Z,1.50
2018-07-15T11:55:47.430Z,1.40
2018-07-15T12:05:52.152Z,1.47
2018-07-15T12:15:57.738Z,1.40
2018-07-15T12:26:02.427Z,1.40
2018-07-15T12:36:07.281Z,1.30
2018-07-15T12:46:12.125Z,1.27
2018-07-15T12:56:16.757Z,1.30
2018-07-15T13:06:21.282Z,1.40
2018-07-15T13:16:25.983Z,1.50
2018-07-15T13:26:30.780Z,1.20
2018-07-15T13:36:35.375Z,1.30
2018-07-15T13:46:40.237Z,1.20
2018-07-15T13:56:44.808Z,1.30
2018-07-15T14:06:49.589Z,1.23
2018-07-15T14:16:54.272Z,1.30
2018-07-15T14:26:58.823Z,1.20
2018-07-15T14:37:03.743Z,1.10
2018-07-15T14:47:08.520Z,1.00
2018-07-15T14:57:12.990Z,1.20
2018-07-15T15:07:17.868Z,1.40
2018-07-15T15:17:26.184Z,1.67
2018-07-15T15:27:31.489Z,1.50
2018-07-15T15:37:36.612Z,1.50
2018-07-15T15:47:42.761Z,1.47
2018-07-15T15:57:49.285Z,1.50
2018-07-15T16:07:57.282Z,1.50
2018-07-15T16:18:09.654Z,1.70
2018-07-15T16:28:18.250Z,1.90
2018-07-15T16:38:23.369Z,2.20
2018-07-15T16:48:30.449Z,2.33
2018-07-15T16:58:38.904Z,2.67
2018-07-15T17:08:45.548Z,2.60
2018-07-15T17:20:17.313Z,2.70
2018-07-15T17:30:23.155Z,2.60
2018-07-15T17:40:31.581Z,2.80
2018-07-15T17:50:39.775Z,2.80
2018-07-15T18:00:48.619Z,2.50
2018-07-15T18:10:56.374Z,2.80
2018-07-15T21:08:15.463Z,2.70
2018-07-15T21:18:20.549Z,2.53
2018-07-15T21:28:25.754Z,2.70
2018-07-15T21:38:30.536Z,2.70
2018-07-15T21:48:35.439Z,2.60
2018-07-15T21:58:40.270Z,2.70
